Weather at D-Bar Ranch Airport [CLOSED]

Public forecast

Using degrees Fahrenheit for public forecast. Weather courtesy of forecast.io.

Closest aviation weather report (METAR) to D-Bar Ranch Airport

Closest report is Avenger Field, 25.6 nm (47.5 km) N. Retrieved 2021/07/24 23:35 UTC (16 minutes ago):

KSWW 242335Z AUTO 12008KT 10SM CLR 38/16 A3002 RMK AO2 T03750161

Closest aviation forecast (TAF) to D-Bar Ranch Airport

Closest forecast is Dyess Air Force Base, 38.4 nm (71.1 km) NE. Retrieved 2021/07/24 22:34 UTC (1 hour ago):

TAF KDYS 242219Z 2422/2602 17012KT 9999 SCT120 QNH2993INS BECMG 2423/2500 18012KT 9999 SKC QNH2989INS TEMPO 2510/2518 20012KT TX37/2520Z TN23/2512Z LAST NO AMDS AFT 2422 NEXT 2515